createdAt,value
2022-10-30T00:00:38.815Z,257
2022-10-30T00:02:44.584Z,257
2022-10-30T00:04:50.248Z,258
2022-10-30T00:06:55.669Z,256
2022-10-30T00:09:00.817Z,256
2022-10-30T00:11:05.868Z,259
2022-10-30T00:13:11.157Z,257
2022-10-30T00:15:16.331Z,257
2022-10-30T00:17:21.502Z,258
2022-10-30T00:19:26.698Z,257
2022-10-30T00:21:32.056Z,257
2022-10-30T00:23:37.227Z,256
2022-10-30T00:25:42.536Z,258
2022-10-30T00:27:47.732Z,259
2022-10-30T00:29:52.841Z,256
2022-10-30T00:31:58.018Z,255
2022-10-30T00:34:03.101Z,254
2022-10-30T00:36:08.235Z,256
2022-10-30T00:38:13.635Z,256
2022-10-30T00:40:18.685Z,256
2022-10-30T00:42:23.940Z,256
2022-10-30T00:44:29.293Z,256
2022-10-30T00:46:34.649Z,257
2022-10-30T00:48:39.858Z,256
2022-10-30T00:50:45.035Z,256
2022-10-30T00:52:50.249Z,256
2022-10-30T00:54:55.588Z,257
2022-10-30T00:57:01.263Z,256
2022-10-30T00:59:06.549Z,257
2022-10-30T01:01:11.923Z,256
2022-10-30T01:03:17.383Z,257
2022-10-30T01:05:22.739Z,259
2022-10-30T01:07:27.876Z,258
2022-10-30T01:09:33.561Z,257
2022-10-30T01:11:38.868Z,256
2022-10-30T01:13:44.021Z,258
2022-10-30T01:15:49.302Z,256
2022-10-30T01:17:54.779Z,255
2022-10-30T01:22:07.347Z,259
2022-10-30T01:24:12.482Z,259
2022-10-30T01:26:17.583Z,257
2022-10-30T01:28:22.881Z,259
2022-10-30T01:30:28.151Z,258
2022-10-30T01:32:33.284Z,259
2022-10-30T01:34:38.436Z,259
2022-10-30T01:36:44.020Z,260
2022-10-30T01:38:49.157Z,257
2022-10-30T01:40:54.488Z,255
2022-10-30T01:42:59.505Z,256
2022-10-30T01:45:04.811Z,256
2022-10-30T01:47:11.790Z,256
2022-10-30T01:49:17.497Z,256
2022-10-30T01:51:23.604Z,256
2022-10-30T01:53:29.757Z,256
2022-10-30T01:55:35.030Z,257
2022-10-30T01:57:40.088Z,257
2022-10-30T01:59:45.245Z,255
2022-10-30T02:01:50.910Z,257
2022-10-30T02:03:56.405Z,257
2022-10-30T02:06:01.850Z,257
2022-10-30T02:08:07.055Z,257
2022-10-30T02:10:12.195Z,255
2022-10-30T02:12:17.374Z,258
2022-10-30T02:14:22.449Z,257
2022-10-30T02:16:27.492Z,256
2022-10-30T02:18:33.867Z,258
2022-10-30T02:20:39.450Z,257
2022-10-30T02:22:44.838Z,257
2022-10-30T02:24:50.094Z,255
2022-10-30T02:26:55.460Z,256
2022-10-30T02:29:00.775Z,256
2022-10-30T02:31:05.775Z,256
2022-10-30T02:33:11.353Z,254
2022-10-30T02:35:17.071Z,255
2022-10-30T02:37:22.290Z,256
2022-10-30T02:39:27.640Z,259
2022-10-30T02:41:33.139Z,261
2022-10-30T02:43:38.463Z,259
2022-10-30T02:45:43.706Z,260
2022-10-30T02:47:49.104Z,261
2022-10-30T02:49:54.492Z,257
2022-10-30T02:52:00.022Z,254
2022-10-30T02:54:05.285Z,257
2022-10-30T02:56:10.494Z,259
2022-10-30T02:58:15.990Z,248
2022-10-30T03:00:21.308Z,248
2022-10-30T03:02:26.755Z,249
2022-10-30T03:04:31.921Z,247
2022-10-30T03:06:36.993Z,256
2022-10-30T03:08:42.542Z,257
2022-10-30T03:10:47.626Z,257
2022-10-30T03:12:52.564Z,256
2022-10-30T03:14:57.614Z,255
2022-10-30T03:17:03.090Z,254
2022-10-30T03:19:08.164Z,255
2022-10-30T03:21:13.184Z,254
2022-10-30T03:23:18.582Z,256
2022-10-30T03:25:23.919Z,262
2022-10-30T03:27:29.455Z,262
2022-10-30T03:29:34.507Z,262
2022-10-30T03:31:39.723Z,259
2022-10-30T03:33:44.972Z,256
2022-10-30T03:35:50.355Z,262
2022-10-30T03:37:55.590Z,250
2022-10-30T03:40:00.560Z,253
2022-10-30T03:42:05.659Z,253
2022-10-30T03:44:10.797Z,253
2022-10-30T03:46:16.159Z,254
2022-10-30T03:48:21.400Z,253
2022-10-30T03:50:26.720Z,253
2022-10-30T03:52:31.701Z,254
2022-10-30T03:54:36.829Z,252
2022-10-30T03:56:42.040Z,248
2022-10-30T03:58:47.213Z,249
2022-10-30T04:00:52.225Z,252
2022-10-30T04:02:58.844Z,254
2022-10-30T04:05:04.841Z,254
2022-10-30T04:07:10.037Z,254
2022-10-30T04:09:17.351Z,253
2022-10-30T04:11:23.163Z,252
2022-10-30T04:13:28.723Z,252
2022-10-30T04:15:33.847Z,254
2022-10-30T04:17:39.065Z,258
2022-10-30T04:19:44.069Z,256
2022-10-30T04:21:49.576Z,254
2022-10-30T04:23:54.765Z,256
2022-10-30T04:25:59.917Z,256
2022-10-30T04:28:04.991Z,255
2022-10-30T04:30:09.951Z,256
2022-10-30T04:32:15.295Z,255
2022-10-30T04:34:20.469Z,255
2022-10-30T04:36:25.531Z,252
2022-10-30T04:38:30.474Z,267
2022-10-30T04:40:35.654Z,264
2022-10-30T04:42:41.258Z,256
2022-10-30T04:44:46.579Z,256
2022-10-30T04:46:51.732Z,254
2022-10-30T04:48:57.467Z,254
2022-10-30T04:51:02.899Z,255
2022-10-30T04:53:08.010Z,255
2022-10-30T04:55:13.011Z,254
2022-10-30T04:57:18.436Z,253
2022-10-30T04:59:23.670Z,254
2022-10-30T05:01:29.411Z,255
2022-10-30T05:03:35.027Z,255
2022-10-30T05:05:40.154Z,255
2022-10-30T05:07:45.513Z,253
2022-10-30T05:09:51.092Z,254
2022-10-30T05:12:01.648Z,253
2022-10-30T05:14:06.852Z,254
2022-10-30T05:16:12.081Z,254
2022-10-30T05:18:17.158Z,254
2022-10-30T05:20:22.243Z,254
2022-10-30T05:22:27.543Z,253
2022-10-30T05:24:33.151Z,252
2022-10-30T05:26:38.666Z,252
2022-10-30T05:28:44.091Z,254
2022-10-30T05:30:51.423Z,254
2022-10-30T05:32:58.796Z,252
2022-10-30T05:35:07.873Z,257
2022-10-30T05:37:13.539Z,252
2022-10-30T05:39:19.254Z,255
2022-10-30T05:41:25.527Z,254
2022-10-30T05:43:32.459Z,257
2022-10-30T05:45:38.276Z,255
2022-10-30T05:47:43.881Z,257
2022-10-30T05:49:49.783Z,255
2022-10-30T05:51:56.055Z,256
2022-10-30T05:54:01.954Z,257
2022-10-30T05:56:07.868Z,252
2022-10-30T05:58:13.881Z,252
2022-10-30T06:00:20.003Z,255
2022-10-30T06:02:26.377Z,268
2022-10-30T06:04:33.351Z,264
2022-10-30T06:06:39.919Z,264
2022-10-30T06:08:45.889Z,265
2022-10-30T06:10:52.102Z,264
2022-10-30T06:12:59.810Z,262
2022-10-30T06:15:06.291Z,262
2022-10-30T06:17:15.985Z,261
2022-10-30T06:19:22.195Z,261
2022-10-30T06:21:29.433Z,265
2022-10-30T06:23:35.842Z,264
2022-10-30T06:25:44.523Z,264
2022-10-30T06:27:50.751Z,264
2022-10-30T06:29:56.922Z,265
2022-10-30T06:32:08.831Z,262
2022-10-30T06:34:15.378Z,261
2022-10-30T06:36:21.631Z,262
2022-10-30T06:38:28.149Z,262
2022-10-30T06:40:35.330Z,262
2022-10-30T06:42:41.678Z,262
2022-10-30T06:44:48.484Z,262
2022-10-30T06:46:55.341Z,261
2022-10-30T06:49:02.885Z,262
2022-10-30T06:51:09.072Z,262
2022-10-30T06:53:17.076Z,252
2022-10-30T06:55:23.242Z,264
2022-10-30T06:57:30.606Z,264
2022-10-30T06:59:36.759Z,265
2022-10-30T07:01:43.222Z,266
2022-10-30T07:03:49.657Z,264
2022-10-30T07:05:55.543Z,252
2022-10-30T07:08:02.822Z,248
2022-10-30T07:10:09.379Z,249
2022-10-30T07:12:16.033Z,249
2022-10-30T07:14:22.487Z,254
2022-10-30T07:16:30.200Z,248
2022-10-30T07:18:36.340Z,253
2022-10-30T07:20:42.441Z,252
2022-10-30T07:22:49.079Z,255
2022-10-30T07:24:55.297Z,253
2022-10-30T07:27:01.410Z,247
2022-10-30T07:29:08.750Z,255
2022-10-30T07:31:28.852Z,253
2022-10-30T07:34:06.516Z,248
2022-10-30T07:36:12.795Z,248
2022-10-30T07:38:19.999Z,256
2022-10-30T07:40:26.252Z,252
2022-10-30T07:42:32.472Z,255
2022-10-30T07:44:38.668Z,257
2022-10-30T07:46:45.027Z,257
2022-10-30T07:48:51.117Z,258
2022-10-30T07:50:57.190Z,256
2022-10-30T07:53:03.464Z,255
2022-10-30T07:55:09.724Z,256
2022-10-30T07:57:17.895Z,254
2022-10-30T07:59:24.026Z,253
2022-10-30T08:01:31.941Z,252
2022-10-30T08:03:38.253Z,255
2022-10-30T08:05:44.439Z,254
2022-10-30T08:07:52.077Z,253
2022-10-30T08:09:58.893Z,250
2022-10-30T08:12:05.514Z,255
2022-10-30T08:14:11.721Z,255
2022-10-30T08:16:17.773Z,255
2022-10-30T08:18:24.068Z,254
2022-10-30T08:20:31.472Z,261
2022-10-30T08:22:37.786Z,261
2022-10-30T08:24:43.671Z,258
2022-10-30T08:26:49.826Z,262
2022-10-30T08:28:56.542Z,254
2022-10-30T08:31:02.142Z,254
2022-10-30T08:33:08.243Z,255
2022-10-30T08:35:21.404Z,255
2022-10-30T08:37:27.729Z,255
2022-10-30T08:39:33.955Z,259
2022-10-30T08:41:40.075Z,258
2022-10-30T08:43:46.500Z,257
2022-10-30T08:45:55.906Z,256
2022-10-30T08:48:04.334Z,256
2022-10-30T08:50:11.008Z,256
2022-10-30T08:52:19.721Z,257
2022-10-30T08:54:26.019Z,256
2022-10-30T08:56:32.406Z,256
2022-10-30T08:58:38.526Z,257
2022-10-30T09:00:44.941Z,256
2022-10-30T09:02:52.003Z,255
2022-10-30T09:04:58.701Z,256
2022-10-30T09:07:08.973Z,254
2022-10-30T09:09:18.941Z,255
2022-10-30T09:11:25.030Z,253
2022-10-30T09:13:31.320Z,252
2022-10-30T09:15:37.729Z,253
2022-10-30T09:17:44.921Z,256
2022-10-30T09:19:51.123Z,261
2022-10-30T09:21:57.246Z,259
2022-10-30T09:24:04.045Z,258
2022-10-30T09:26:10.620Z,257
2022-10-30T09:28:22.895Z,253
2022-10-30T09:30:28.715Z,252
2022-10-30T09:32:35.193Z,253
2022-10-30T09:34:41.308Z,253
2022-10-30T09:36:47.121Z,249
2022-10-30T09:38:54.819Z,252
2022-10-30T09:41:00.664Z,252
2022-10-30T09:43:06.650Z,249
2022-10-30T09:45:32.087Z,253
2022-10-30T09:47:38.848Z,254
2022-10-30T09:49:45.006Z,253
2022-10-30T09:51:51.276Z,253
2022-10-30T09:53:57.208Z,253
2022-10-30T09:56:03.272Z,252
2022-10-30T09:58:10.392Z,254
2022-10-30T10:00:17.519Z,253
2022-10-30T10:02:24.127Z,253
2022-10-30T10:04:30.951Z,250
2022-10-30T10:06:37.959Z,248
2022-10-30T10:08:44.384Z,247
2022-10-30T10:10:50.456Z,259
2022-10-30T10:13:05.071Z,261
2022-10-30T10:15:12.149Z,257
2022-10-30T10:17:19.871Z,259
2022-10-30T10:19:26.836Z,259
2022-10-30T10:21:35.175Z,256
2022-10-30T10:23:41.349Z,248
2022-10-30T10:25:49.095Z,256
2022-10-30T10:27:56.685Z,257
2022-10-30T10:30:03.576Z,255
2022-10-30T10:32:10.532Z,255
2022-10-30T10:34:17.570Z,254
2022-10-30T10:36:24.816Z,247
2022-10-30T10:38:31.933Z,255
2022-10-30T10:40:38.841Z,257
2022-10-30T10:42:45.749Z,256
2022-10-30T10:44:52.404Z,257
2022-10-30T10:47:07.090Z,255
2022-10-30T10:49:14.285Z,256
2022-10-30T10:51:20.585Z,254
2022-10-30T10:53:28.070Z,252
2022-10-30T10:55:34.985Z,252
2022-10-30T10:57:41.827Z,253
2022-10-30T10:59:49.026Z,252
2022-10-30T11:01:57.063Z,253
2022-10-30T11:04:03.568Z,254
2022-10-30T11:06:11.981Z,254
2022-10-30T11:08:19.619Z,255
2022-10-30T11:10:26.393Z,254
2022-10-30T11:12:38.523Z,254
2022-10-30T11:14:45.112Z,256
2022-10-30T11:16:51.931Z,253
2022-10-30T11:18:58.753Z,254
2022-10-30T11:21:05.211Z,258
2022-10-30T11:23:11.709Z,261
2022-10-30T11:25:19.046Z,255
2022-10-30T11:27:27.350Z,254
2022-10-30T11:29:34.934Z,254
2022-10-30T11:31:41.345Z,254
2022-10-30T11:33:48.694Z,254
2022-10-30T11:35:57.665Z,257
2022-10-30T11:38:03.935Z,259
2022-10-30T11:40:10.649Z,254
2022-10-30T11:42:16.349Z,250
2022-10-30T11:44:23.490Z,257
2022-10-30T11:46:32.607Z,256
2022-10-30T11:48:39.041Z,259
2022-10-30T11:50:46.583Z,257
2022-10-30T11:52:55.088Z,255
2022-10-30T11:55:02.151Z,256
2022-10-30T11:57:08.837Z,254
2022-10-30T11:59:15.897Z,256
2022-10-30T12:01:25.037Z,255
2022-10-30T12:03:31.381Z,256
2022-10-30T12:05:37.908Z,254
2022-10-30T12:07:44.512Z,257
2022-10-30T12:09:51.379Z,255
2022-10-30T12:12:05.831Z,253
2022-10-30T12:14:15.838Z,253
2022-10-30T12:16:25.549Z,258
2022-10-30T12:18:32.707Z,257
2022-10-30T12:20:39.467Z,257
2022-10-30T12:22:46.873Z,256
2022-10-30T12:24:53.180Z,259
2022-10-30T12:26:59.871Z,258
2022-10-30T12:29:06.701Z,257
2022-10-30T12:31:13.489Z,256
2022-10-30T12:33:20.719Z,256
2022-10-30T12:35:28.989Z,255
2022-10-30T12:37:36.772Z,258
2022-10-30T12:39:44.107Z,254
2022-10-30T12:41:51.086Z,262
2022-10-30T12:43:58.010Z,261
2022-10-30T12:46:04.585Z,257
2022-10-30T12:48:10.865Z,257
2022-10-30T12:50:16.978Z,257
2022-10-30T12:52:24.088Z,261
2022-10-30T12:54:31.165Z,256
2022-10-30T12:56:37.714Z,254
2022-10-30T12:58:44.471Z,255
2022-10-30T13:00:51.768Z,257
2022-10-30T13:02:59.268Z,259
2022-10-30T13:05:06.475Z,256
2022-10-30T13:07:12.986Z,255
2022-10-30T13:09:19.594Z,264
2022-10-30T13:11:26.246Z,264
2022-10-30T13:13:32.930Z,255
2022-10-30T13:15:39.998Z,254
2022-10-30T13:17:46.448Z,255
2022-10-30T13:19:54.125Z,262
2022-10-30T13:22:00.831Z,252
2022-10-30T13:24:07.433Z,255
2022-10-30T13:26:13.990Z,253
2022-10-30T13:28:20.399Z,254
2022-10-30T13:30:28.317Z,255
2022-10-30T13:32:34.920Z,254
2022-10-30T13:34:41.636Z,257
2022-10-30T13:36:48.638Z,254
2022-10-30T13:38:54.922Z,253
2022-10-30T13:41:02.620Z,254
2022-10-30T13:43:09.187Z,255
2022-10-30T13:45:15.368Z,257
2022-10-30T13:47:22.122Z,253
2022-10-30T13:49:28.794Z,254
2022-10-30T13:51:34.765Z,255
2022-10-30T13:53:41.387Z,253
2022-10-30T13:55:47.562Z,253
2022-10-30T13:57:54.702Z,253
2022-10-30T14:00:00.861Z,254
2022-10-30T14:02:07.652Z,255
2022-10-30T14:04:14.500Z,252
2022-10-30T14:06:21.058Z,256
2022-10-30T14:08:27.912Z,253
2022-10-30T14:11:01.275Z,249
2022-10-30T14:13:08.044Z,262
2022-10-30T14:15:14.739Z,256
2022-10-30T14:17:21.498Z,255
2022-10-30T14:19:35.200Z,256
2022-10-30T14:22:10.471Z,256
2022-10-30T14:24:23.614Z,256
2022-10-30T14:27:00.059Z,256
2022-10-30T14:29:17.284Z,255
2022-10-30T14:31:24.656Z,256
2022-10-30T14:33:32.188Z,254
2022-10-30T14:35:38.981Z,256
2022-10-30T14:37:45.665Z,255
2022-10-30T14:39:54.562Z,256
2022-10-30T14:42:03.818Z,256
2022-10-30T14:44:10.199Z,255
2022-10-30T14:46:20.836Z,257
2022-10-30T14:48:27.981Z,257
2022-10-30T14:50:39.322Z,256
2022-10-30T14:52:45.762Z,256
2022-10-30T14:54:54.816Z,256
2022-10-30T14:57:01.867Z,256
2022-10-30T14:59:08.437Z,256
2022-10-30T15:01:17.241Z,254
2022-10-30T15:03:26.525Z,255
2022-10-30T15:05:33.735Z,255
2022-10-30T15:07:40.777Z,254
2022-10-30T15:09:48.372Z,254
2022-10-30T15:11:56.164Z,256
2022-10-30T15:14:02.568Z,259
2022-10-30T15:16:09.500Z,262
2022-10-30T15:18:19.979Z,264
2022-10-30T15:20:32.390Z,262
2022-10-30T15:22:39.392Z,262
2022-10-30T15:24:45.893Z,262
2022-10-30T15:26:53.269Z,262
2022-10-30T15:29:02.836Z,262
2022-10-30T15:31:13.495Z,262
2022-10-30T15:33:20.523Z,261
2022-10-30T15:35:31.431Z,262
2022-10-30T15:37:38.865Z,261
2022-10-30T15:39:45.759Z,260
2022-10-30T15:41:52.549Z,259
2022-10-30T15:43:59.995Z,253
2022-10-30T15:46:07.322Z,254
2022-10-30T15:48:14.491Z,254
2022-10-30T15:50:22.111Z,253
2022-10-30T15:52:29.341Z,253
2022-10-30T15:54:40.099Z,255
2022-10-30T15:58:04.155Z,256
2022-10-30T16:00:13.878Z,255
2022-10-30T16:02:22.443Z,255
2022-10-30T16:04:31.272Z,264
2022-10-30T16:06:39.033Z,259
2022-10-30T16:08:46.682Z,258
2022-10-30T16:10:54.479Z,258
2022-10-30T16:13:05.484Z,257
2022-10-30T16:15:13.030Z,257
2022-10-30T16:17:21.959Z,257
2022-10-30T16:19:32.941Z,257
2022-10-30T16:21:39.486Z,256
2022-10-30T16:23:47.543Z,257
2022-10-30T16:25:54.162Z,254
2022-10-30T16:28:04.170Z,257
2022-10-30T16:30:19.227Z,257
2022-10-30T16:32:26.339Z,255
2022-10-30T16:34:41.149Z,256
2022-10-30T16:36:53.323Z,254
2022-10-30T16:39:00.875Z,256
2022-10-30T16:41:07.512Z,256
2022-10-30T16:43:14.913Z,261
2022-10-30T16:45:24.950Z,260
2022-10-30T16:47:37.598Z,257
2022-10-30T16:49:55.692Z,261
2022-10-30T16:52:05.974Z,259
2022-10-30T16:54:13.113Z,262
2022-10-30T16:56:19.769Z,261
2022-10-30T16:58:34.076Z,257
2022-10-30T17:00:43.746Z,255
2022-10-30T17:02:52.849Z,257
2022-10-30T17:05:03.210Z,256
2022-10-30T17:07:10.606Z,255
2022-10-30T17:09:20.112Z,255
2022-10-30T17:14:44.042Z,259
2022-10-30T17:16:52.091Z,257
2022-10-30T17:19:00.749Z,257
2022-10-30T17:21:08.835Z,257
2022-10-30T17:23:16.380Z,259
2022-10-30T17:25:29.992Z,255
2022-10-30T17:27:51.294Z,255
2022-10-30T17:30:24.651Z,247
2022-10-30T17:32:35.617Z,246
2022-10-30T17:34:44.843Z,250
2022-10-30T17:36:57.193Z,248
2022-10-30T17:39:11.702Z,259
2022-10-30T17:41:31.221Z,252
2022-10-30T17:43:39.584Z,254
2022-10-30T17:45:58.904Z,261
2022-10-30T17:48:07.529Z,259
2022-10-30T17:50:17.184Z,257
2022-10-30T17:52:26.360Z,258
2022-10-30T17:54:41.282Z,256
2022-10-30T17:56:50.210Z,255
2022-10-30T17:59:00.914Z,252
2022-10-30T18:01:18.079Z,254
2022-10-30T18:03:28.702Z,254
2022-10-30T18:05:41.163Z,256
2022-10-30T18:09:57.911Z,255
2022-10-30T18:12:08.315Z,254
2022-10-30T18:14:16.343Z,253
2022-10-30T18:16:23.997Z,254
2022-10-30T18:18:33.465Z,253
2022-10-30T18:20:44.489Z,248
2022-10-30T18:22:54.054Z,257
2022-10-30T18:25:08.327Z,255
2022-10-30T18:27:18.749Z,256
2022-10-30T18:29:31.823Z,254
2022-10-30T18:31:45.038Z,253
2022-10-30T18:33:59.289Z,256
2022-10-30T18:36:13.067Z,254
2022-10-30T18:38:21.328Z,256
2022-10-30T18:40:33.536Z,259
2022-10-30T18:42:43.526Z,249
2022-10-30T18:44:53.203Z,253
2022-10-30T18:47:06.858Z,262
2022-10-30T18:49:16.348Z,260
2022-10-30T18:51:29.514Z,246
2022-10-30T18:53:39.457Z,254
2022-10-30T18:57:57.264Z,249
2022-10-30T19:00:05.732Z,255
2022-10-30T19:02:19.605Z,256
2022-10-30T19:04:34.579Z,253
2022-10-30T19:06:43.221Z,256
2022-10-30T19:08:55.396Z,256
2022-10-30T19:11:05.019Z,256
2022-10-30T19:13:17.922Z,254
2022-10-30T19:15:27.546Z,254
2022-10-30T19:17:36.894Z,247
2022-10-30T19:19:48.060Z,246
2022-10-30T19:21:58.316Z,261
2022-10-30T19:24:08.617Z,265
2022-10-30T19:26:23.837Z,256
2022-10-30T19:28:35.905Z,256
2022-10-30T19:30:53.659Z,255
2022-10-30T19:33:10.180Z,254
2022-10-30T19:35:24.548Z,259
2022-10-30T19:37:36.140Z,255
2022-10-30T19:39:51.348Z,257
2022-10-30T19:42:01.532Z,259
2022-10-30T19:44:10.311Z,259
2022-10-30T19:46:22.559Z,256
2022-10-30T19:49:18.817Z,256
2022-10-30T19:51:31.332Z,255
2022-10-30T19:53:42.179Z,257
2022-10-30T19:56:03.850Z,256
2022-10-30T19:58:14.388Z,253
2022-10-30T20:00:27.710Z,261
2022-10-30T20:02:37.854Z,255
2022-10-30T20:04:48.762Z,253
2022-10-30T20:07:06.079Z,254
2022-10-30T20:09:20.286Z,259
2022-10-30T20:11:29.630Z,256
2022-10-30T20:13:38.358Z,258
2022-10-30T20:15:47.190Z,262
2022-10-30T20:17:55.220Z,257
2022-10-30T20:20:07.700Z,256
2022-10-30T20:22:16.760Z,258
2022-10-30T20:24:28.229Z,261
2022-10-30T20:26:38.103Z,256
2022-10-30T20:28:48.330Z,255
2022-10-30T20:30:57.183Z,257
2022-10-30T20:33:05.579Z,254
2022-10-30T20:35:18.792Z,256
2022-10-30T20:37:27.819Z,255
2022-10-30T20:40:01.533Z,257
2022-10-30T20:42:10.206Z,257
2022-10-30T20:44:20.494Z,259
2022-10-30T20:46:28.097Z,256
2022-10-30T20:48:38.684Z,265
2022-10-30T20:50:54.898Z,262
2022-10-30T20:53:01.776Z,257
2022-10-30T20:55:08.792Z,256
2022-10-30T20:57:15.881Z,256
2022-10-30T20:59:22.461Z,256
2022-10-30T21:01:31.847Z,258
2022-10-30T21:03:39.240Z,257
2022-10-30T21:05:47.830Z,265
2022-10-30T21:07:55.121Z,266
2022-10-30T21:10:01.803Z,266
2022-10-30T21:12:08.463Z,266
2022-10-30T21:14:15.339Z,264
2022-10-30T21:16:22.154Z,262
2022-10-30T21:18:28.765Z,265
2022-10-30T21:20:40.604Z,266
2022-10-30T21:22:46.662Z,267
2022-10-30T21:24:57.615Z,265
2022-10-30T21:27:05.736Z,265
2022-10-30T21:29:12.664Z,266
2022-10-30T21:31:19.160Z,264
2022-10-30T21:33:25.275Z,266
2022-10-30T21:35:30.735Z,264
2022-10-30T21:37:37.972Z,266
2022-10-30T21:39:43.806Z,266
2022-10-30T21:41:50.038Z,265
2022-10-30T21:43:56.206Z,264
2022-10-30T21:46:02.089Z,267
2022-10-30T21:48:07.387Z,266
2022-10-30T21:50:15.242Z,265
2022-10-30T21:52:20.463Z,264
2022-10-30T21:54:27.136Z,265
2022-10-30T21:56:32.879Z,265
2022-10-30T21:58:41.156Z,265
2022-10-30T22:00:46.997Z,265
2022-10-30T22:02:52.941Z,264
2022-10-30T22:04:58.518Z,266
2022-10-30T22:07:05.009Z,265
2022-10-30T22:09:10.617Z,266
2022-10-30T22:11:15.921Z,265
2022-10-30T22:13:21.556Z,266
2022-10-30T22:15:27.609Z,266
2022-10-30T22:17:37.235Z,266
2022-10-30T22:19:42.854Z,264
2022-10-30T22:21:48.463Z,264
2022-10-30T22:23:53.498Z,265
2022-10-30T22:25:58.816Z,264
2022-10-30T22:28:05.515Z,262
2022-10-30T22:30:10.843Z,264
2022-10-30T22:32:16.126Z,262
2022-10-30T22:34:21.341Z,261
2022-10-30T22:36:27.587Z,264
2022-10-30T22:38:32.967Z,264
2022-10-30T22:40:39.238Z,261
2022-10-30T22:42:44.482Z,264
2022-10-30T22:44:49.571Z,266
2022-10-30T22:46:54.776Z,264
2022-10-30T22:49:00.277Z,266
2022-10-30T22:51:05.348Z,264
2022-10-30T22:53:15.846Z,262
2022-10-30T22:55:22.099Z,266
2022-10-30T22:57:27.395Z,265
2022-10-30T22:59:36.262Z,255
2022-10-30T23:01:42.904Z,255
2022-10-30T23:03:48.582Z,255
2022-10-30T23:06:01.229Z,257
2022-10-30T23:08:06.297Z,256
2022-10-30T23:10:11.489Z,260
2022-10-30T23:12:16.758Z,259
2022-10-30T23:14:21.840Z,257
2022-10-30T23:16:27.131Z,257
2022-10-30T23:18:32.215Z,260
2022-10-30T23:20:37.394Z,257
2022-10-30T23:22:42.645Z,257
2022-10-30T23:24:47.941Z,255
2022-10-30T23:26:52.886Z,256
2022-10-30T23:28:57.951Z,256
2022-10-30T23:31:03.314Z,255
2022-10-30T23:33:08.531Z,255
2022-10-30T23:35:13.595Z,256
2022-10-30T23:37:18.874Z,256
2022-10-30T23:39:27.101Z,255
2022-10-30T23:41:32.251Z,255
2022-10-30T23:43:37.255Z,255
2022-10-30T23:45:42.374Z,256
2022-10-30T23:47:47.471Z,258
2022-10-30T23:49:52.721Z,257
2022-10-30T23:51:57.769Z,257
2022-10-30T23:54:04.030Z,256
2022-10-30T23:56:09.213Z,264
